Aeroporto :
LOGIN :

Iscrizione | Disclaimer

   EN    FR    IT 

 










Sommario :    VFR   VFR Marginale   IFR   IFR Intensivo   IFR Molto Intensivo
Visibilità : 
Base nubi : 
>= 8 km
>= 3000ft
5 / 8 km
1000 / 3000 ft
1500m / 5 km
500 / 1000 ft
800 / 1500m
200 / 500 ft
< 800m
< 200 ft
Simboli :   Temporali  Nebbia  Neve Forte  Precipitazioni Forti  Vento > 20 kt
SIGMETs :   Varie  Temporali  Ghiacco  Turbolenza  Onda orograficha  Ceneri Vulcaniche






- Altitudine del aeroporto : 124 ft
- Codice IATA : NHT


EGWU - RAF Northolt

ULTIMO METAR :
  • 231120Z 27024KT 9999 BKN022 BKN030 14/10 Q1012 TEMPO 5000 SHRA

METARs OBSOLETI :
  • 231050Z 27024G39KT 9999 BKN022 BKN028 14/11 Q1011 TEMPO 7000 SHRA
  • 231020Z 26019KT 9999 BKN016 BKN022 13/11 Q1011 TEMPO 7000 RA RMK WHT TEMPO WHT
  • 230950Z 26020KT 9999 FEW012 BKN020 13/11 Q1010 BECMG FEW020 BKN028
  • 230920Z 26021G34KT 9999 -DZ BKN009 BKN016 12/11 Q1011 BECMG FEW009 BKN016
  • 230850Z 26021G31KT 6000 -DZ FEW009 BKN011 12/11 Q1010 BECMG FEW011 BKN018
  • 230820Z 25020G30KT 6000 -DZ BKN009 BKN016 12/11 Q1010 TEMPO 4000 -DZ RMK GRN TEMPO GRN

TAF TAF EGWU
Valido dal 23 a 09 ore il 24 a 03 ore UTC


230739Z 2309/2403 25022G34KT 9999 BKN012
TEMPO 2309/2313 4000 -RADZ
BECMG 2310/2313 SCT030
BECMG 2312/2314 29018G28KT
BECMG 2314/2317 30008KT
TEMPO 2402/2403 7000 -RA BKN020



MetMap, La meteo Aeronautica in un colpo d'occhio ! - Copyright ORBIFLY Dicembre 2007 - Disclaimer

ORBIFLY MET'MAP TEAM :

Programmazione e sviluppo : Alexandra Zaïnal
Concezione : Baudouin d'Aumeries
Aiuto per la programmazione : Marc-Olivier Méhu
Supporto tecnico e logistico : Manuel Goepfert
Aiuto per la traduzione : Arnaldo La Scala

Contatto : metmap@orbifly.com




FONTI E CREDITI :

   NOAA